createdAt,value
2022-08-07T00:01:44.288Z,89.43
2022-08-07T00:05:01.128Z,91.67
2022-08-07T00:07:40.465Z,92.01
2022-08-07T00:10:47.609Z,93.86
2022-08-07T00:13:51.449Z,93.89
2022-08-07T00:16:50.353Z,99.97
2022-08-07T00:20:00.903Z,98.72
2022-08-07T00:23:08.132Z,100.00
2022-08-07T00:26:01.502Z,100.00
2022-08-07T00:29:43.355Z,100.00
2022-08-07T00:32:48.221Z,100.00
2022-08-07T00:35:50.302Z,100.00
2022-08-07T00:38:42.074Z,100.00
2022-08-07T00:42:06.686Z,100.00
2022-08-07T00:44:45.523Z,100.00
2022-08-07T00:48:08.106Z,99.91
2022-08-07T00:50:50.367Z,98.57
2022-08-07T00:53:39.128Z,99.07
2022-08-07T00:56:18.901Z,99.33
2022-08-07T00:59:17.275Z,99.33
2022-08-07T01:02:14.174Z,98.12
2022-08-07T01:05:01.161Z,98.18
2022-08-07T01:07:36.085Z,98.47
2022-08-07T01:10:30.102Z,96.99
2022-08-07T01:13:55.657Z,99.31
2022-08-07T01:17:25.475Z,99.90
2022-08-07T01:20:35.377Z,99.25
2022-08-07T01:23:43.751Z,100.00
2022-08-07T01:27:04.978Z,100.00
2022-08-07T01:29:39.693Z,100.00
2022-08-07T01:32:22.406Z,100.00
2022-08-07T01:35:02.115Z,100.00
2022-08-07T01:37:35.577Z,100.00
2022-08-07T01:40:06.859Z,100.00
2022-08-07T01:42:56.932Z,100.00
2022-08-07T01:45:48.458Z,100.00
2022-08-07T01:48:47.537Z,100.00
2022-08-07T01:52:24.940Z,100.00
2022-08-07T01:55:36.287Z,100.00
2022-08-07T01:58:28.902Z,100.00
2022-08-07T02:01:59.802Z,100.00
2022-08-07T02:05:16.069Z,100.00
2022-08-07T02:08:09.797Z,100.00
2022-08-07T02:10:58.163Z,100.00
2022-08-07T02:13:57.393Z,100.00
2022-08-07T02:16:33.081Z,100.00
2022-08-07T02:20:07.790Z,100.00
2022-08-07T02:22:02.863Z,100.00
2022-08-07T02:25:21.168Z,100.00
2022-08-07T02:28:27.267Z,100.00
2022-08-07T02:31:28.049Z,100.00
2022-08-07T02:34:11.655Z,100.00
2022-08-07T02:37:01.974Z,100.00
2022-08-07T02:39:43.457Z,100.00
2022-08-07T02:42:18.062Z,100.00
2022-08-07T02:44:51.887Z,100.00
2022-08-07T02:47:35.060Z,100.00
2022-08-07T02:50:16.689Z,100.00
2022-08-07T02:53:15.689Z,100.00
2022-08-07T02:56:03.997Z,100.00
2022-08-07T02:58:39.763Z,100.00
2022-08-07T03:01:40.186Z,100.00
2022-08-07T03:04:19.483Z,100.00
2022-08-07T03:06:48.570Z,100.00
2022-08-07T03:09:41.815Z,100.00
2022-08-07T03:12:30.867Z,100.00
2022-08-07T03:15:10.626Z,100.00
2022-08-07T03:18:20.899Z,100.00
2022-08-07T03:21:11.380Z,100.00
2022-08-07T03:24:21.220Z,100.00
2022-08-07T03:26:36.200Z,100.00
2022-08-07T03:29:22.203Z,100.00
2022-08-07T03:31:53.983Z,100.00
2022-08-07T03:34:29.862Z,100.00
2022-08-07T03:37:12.184Z,100.00
2022-08-07T03:39:59.384Z,100.00
2022-08-07T03:42:51.455Z,100.00
2022-08-07T03:45:47.808Z,100.00
2022-08-07T03:48:45.475Z,100.00
2022-08-07T03:51:47.935Z,100.00
2022-08-07T03:54:35.253Z,100.00
2022-08-07T03:58:32.706Z,100.00
2022-08-07T04:00:37.886Z,100.00
2022-08-07T04:03:23.702Z,100.00
2022-08-07T04:05:52.907Z,100.00
2022-08-07T04:08:32.635Z,100.00
2022-08-07T04:12:21.296Z,100.00
2022-08-07T04:14:10.727Z,100.00
2022-08-07T04:17:05.099Z,100.00
2022-08-07T04:19:54.362Z,100.00
2022-08-07T04:22:27.379Z,100.00
2022-08-07T04:25:24.512Z,100.00
2022-08-07T04:28:00.885Z,100.00
2022-08-07T04:31:05.200Z,100.00
2022-08-07T04:33:59.462Z,100.00
2022-08-07T04:36:51.670Z,100.00
2022-08-07T04:39:25.418Z,100.00
2022-08-07T04:42:28.688Z,100.00
2022-08-07T04:45:11.745Z,100.00
2022-08-07T04:48:16.454Z,100.00
2022-08-07T04:51:19.968Z,100.00
2022-08-07T04:54:12.366Z,100.00
2022-08-07T04:58:12.969Z,100.00
2022-08-07T05:01:01.640Z,100.00
2022-08-07T05:04:52.928Z,100.00
2022-08-07T05:08:59.871Z,100.00
2022-08-07T05:12:02.334Z,100.00
2022-08-07T05:15:25.959Z,100.00
2022-08-07T05:18:56.633Z,100.00
2022-08-07T05:22:00.122Z,100.00
2022-08-07T05:24:55.734Z,100.00
2022-08-07T05:28:16.031Z,100.00
2022-08-07T05:30:55.879Z,100.00
2022-08-07T05:34:31.978Z,100.00
2022-08-07T05:38:12.865Z,100.00
2022-08-07T05:41:25.796Z,100.00
2022-08-07T05:44:29.310Z,100.00
2022-08-07T05:47:18.761Z,100.00
2022-08-07T05:50:45.497Z,97.04
2022-08-07T05:54:12.475Z,91.87
2022-08-07T05:56:35.163Z,83.10
2022-08-07T05:59:57.242Z,81.47
2022-08-07T06:02:41.793Z,76.08
2022-08-07T06:05:15.661Z,74.94
2022-08-07T06:08:14.918Z,74.33
2022-08-07T06:11:50.347Z,72.85
2022-08-07T06:15:22.291Z,72.15
2022-08-07T06:18:19.393Z,72.12
2022-08-07T06:22:15.777Z,71.76
2022-08-07T06:24:45.494Z,72.75
2022-08-07T06:28:07.042Z,73.07
2022-08-07T06:31:09.487Z,69.29
2022-08-07T06:34:30.425Z,66.79
2022-08-07T06:37:46.808Z,68.35
2022-08-07T06:41:16.590Z,67.63
2022-08-07T06:44:51.629Z,64.15
2022-08-07T06:48:06.525Z,63.62
2022-08-07T06:50:55.032Z,63.58
2022-08-07T06:55:29.254Z,63.90
2022-08-07T06:57:57.591Z,64.75
2022-08-07T07:01:44.155Z,63.79
2022-08-07T07:06:02.763Z,60.16
2022-08-07T07:09:59.854Z,59.98
2022-08-07T07:13:57.808Z,60.02
2022-08-07T07:17:16.018Z,61.34
2022-08-07T07:20:37.921Z,60.35
2022-08-07T07:24:11.190Z,59.60
2022-08-07T07:28:03.154Z,56.74
2022-08-07T07:31:59.941Z,52.78
2022-08-07T07:51:17.979Z,46.61
2022-08-07T07:55:08.835Z,43.45
2022-08-07T07:59:00.087Z,45.24
2022-08-07T08:03:04.570Z,45.63
2022-08-07T08:06:55.422Z,44.23
2022-08-07T08:10:47.943Z,43.11
2022-08-07T08:14:30.857Z,43.80
2022-08-07T08:18:21.476Z,44.11
2022-08-07T08:22:12.135Z,41.81
2022-08-07T08:26:04.585Z,40.83
2022-08-07T08:29:54.157Z,40.54
2022-08-07T08:33:49.772Z,39.56
2022-08-07T08:38:00.466Z,38.69
2022-08-07T08:42:25.892Z,38.28
2022-08-07T08:46:27.741Z,40.92
2022-08-07T08:50:35.267Z,42.18
2022-08-07T08:54:27.939Z,43.45
2022-08-07T08:58:24.886Z,42.26
2022-08-07T09:02:36.727Z,39.70
2022-08-07T09:06:51.382Z,38.13
2022-08-07T09:10:44.156Z,40.67
2022-08-07T09:14:58.730Z,41.42
2022-08-07T09:19:07.286Z,43.21
2022-08-07T09:24:34.199Z,43.80
2022-08-07T09:28:01.021Z,44.07
2022-08-07T09:31:48.638Z,43.53
2022-08-07T09:36:09.512Z,42.64
2022-08-07T09:40:10.875Z,41.27
2022-08-07T09:44:05.952Z,39.37
2022-08-07T09:48:19.089Z,37.89
2022-08-07T09:52:33.336Z,36.25
2022-08-07T09:56:39.304Z,35.51
2022-08-07T10:00:19.786Z,35.53
2022-08-07T10:04:14.362Z,35.87
2022-08-07T10:08:20.570Z,38.88
2022-08-07T10:12:26.429Z,39.48
2022-08-07T10:16:35.222Z,39.50
2022-08-07T10:20:36.059Z,38.29
2022-08-07T10:24:50.993Z,37.87
2022-08-07T10:28:58.767Z,38.39
2022-08-07T10:32:53.235Z,36.25
2022-08-07T10:36:51.284Z,34.55
2022-08-07T10:40:44.060Z,32.02
2022-08-07T10:44:38.519Z,30.85
2022-08-07T10:48:35.474Z,31.40
2022-08-07T10:52:34.145Z,32.46
2022-08-07T10:56:31.812Z,32.81
2022-08-07T11:00:39.523Z,32.26
2022-08-07T11:04:34.934Z,33.14
2022-08-07T11:08:36.549Z,35.77
2022-08-07T11:12:32.196Z,36.07
2022-08-07T11:16:21.969Z,35.46
2022-08-07T11:20:19.032Z,35.53
2022-08-07T11:24:23.377Z,35.26
2022-08-07T11:28:15.370Z,34.68
2022-08-07T11:32:25.265Z,32.86
2022-08-07T11:35:59.772Z,31.47
2022-08-07T11:39:20.232Z,29.94
2022-08-07T11:43:15.403Z,29.45
2022-08-07T11:46:56.939Z,28.63
2022-08-07T11:50:57.742Z,28.14
2022-08-07T11:55:19.015Z,28.05
2022-08-07T12:00:11.299Z,30.45
2022-08-07T12:03:46.905Z,32.54
2022-08-07T12:07:53.302Z,33.96
2022-08-07T12:11:43.482Z,33.70
2022-08-07T12:16:05.836Z,33.25
2022-08-07T12:20:03.155Z,34.35
2022-08-07T12:24:05.758Z,35.09
2022-08-07T12:28:16.595Z,34.01
2022-08-07T12:32:30.369Z,34.11
2022-08-07T12:36:14.044Z,34.28
2022-08-07T12:40:04.863Z,34.53
2022-08-07T12:44:05.619Z,34.37
2022-08-07T12:48:28.215Z,31.10
2022-08-07T12:52:33.876Z,30.44
2022-08-07T12:56:27.978Z,29.86
2022-08-07T12:59:59.524Z,29.03
2022-08-07T13:04:13.556Z,28.63
2022-08-07T13:08:19.352Z,28.38
2022-08-07T13:12:27.123Z,27.93
2022-08-07T13:16:15.984Z,28.47
2022-08-07T13:20:11.416Z,31.04
2022-08-07T13:24:04.759Z,33.37
2022-08-07T13:27:22.311Z,35.15
2022-08-07T13:31:13.422Z,36.19
2022-08-07T13:34:50.934Z,36.57
2022-08-07T13:38:38.822Z,36.02
2022-08-07T13:42:40.100Z,36.27
2022-08-07T13:46:32.881Z,34.66
2022-08-07T13:50:34.004Z,34.06
2022-08-07T13:54:34.729Z,32.58
2022-08-07T13:58:28.091Z,31.17
2022-08-07T14:02:32.160Z,30.44
2022-08-07T14:06:19.284Z,29.98
2022-08-07T14:10:20.353Z,29.80
2022-08-07T14:13:47.737Z,29.70
2022-08-07T14:18:15.617Z,29.24
2022-08-07T14:22:04.248Z,28.76
2022-08-07T14:30:09.345Z,31.05
2022-08-07T14:34:02.121Z,32.40
2022-08-07T14:38:05.594Z,33.46
2022-08-07T14:42:19.618Z,33.80
2022-08-07T14:45:47.058Z,33.38
2022-08-07T14:49:57.398Z,33.24
2022-08-07T14:54:08.893Z,33.56
2022-08-07T14:58:01.253Z,34.41
2022-08-07T15:01:42.830Z,34.37
2022-08-07T15:05:30.572Z,34.70
2022-08-07T15:09:59.174Z,33.77
2022-08-07T15:13:35.826Z,33.96
2022-08-07T15:17:55.041Z,33.18
2022-08-07T15:21:58.595Z,31.74
2022-08-07T15:25:36.682Z,31.10
2022-08-07T15:28:58.408Z,30.39
2022-08-07T15:33:04.209Z,29.77
2022-08-07T15:37:04.144Z,29.20
2022-08-07T15:41:23.969Z,29.64
2022-08-07T15:45:09.485Z,30.87
2022-08-07T15:49:11.745Z,31.40
2022-08-07T15:52:37.410Z,31.76
2022-08-07T15:56:02.080Z,32.26
2022-08-07T15:59:39.814Z,32.87
2022-08-07T16:03:46.065Z,32.64
2022-08-07T16:08:31.865Z,33.52
2022-08-07T16:11:46.054Z,33.72
2022-08-07T16:15:57.335Z,33.71
2022-08-07T16:19:42.171Z,33.47
2022-08-07T16:23:54.674Z,33.24
2022-08-07T16:27:57.198Z,32.97
2022-08-07T16:31:50.096Z,32.88
2022-08-07T16:35:58.450Z,31.19
2022-08-07T16:40:08.654Z,31.13
2022-08-07T16:44:04.077Z,31.63
2022-08-07T16:47:56.613Z,31.27
2022-08-07T16:51:54.129Z,32.18
2022-08-07T16:55:55.819Z,32.68
2022-08-07T16:59:49.373Z,32.07
2022-08-07T17:04:00.183Z,31.93
2022-08-07T17:08:14.065Z,33.39
2022-08-07T17:12:04.476Z,33.75
2022-08-07T17:15:59.245Z,34.24
2022-08-07T17:20:02.333Z,33.41
2022-08-07T17:23:47.589Z,33.50
2022-08-07T17:27:35.514Z,33.85
2022-08-07T17:31:44.092Z,34.95
2022-08-07T17:35:55.088Z,35.23
2022-08-07T17:39:53.084Z,35.51
2022-08-07T17:43:18.363Z,35.50
2022-08-07T17:47:08.496Z,36.43
2022-08-07T17:50:47.210Z,36.71
2022-08-07T17:54:53.878Z,36.91
2022-08-07T17:58:56.840Z,37.29
2022-08-07T18:02:39.405Z,37.97
2022-08-07T18:06:37.069Z,38.29
2022-08-07T18:10:31.982Z,38.55
2022-08-07T18:14:23.643Z,38.85
2022-08-07T18:19:02.737Z,39.44
2022-08-07T18:22:40.481Z,39.97
2022-08-07T18:26:40.895Z,40.49
2022-08-07T18:30:46.481Z,42.74
2022-08-07T18:34:40.746Z,43.90
2022-08-07T18:38:59.263Z,44.78
2022-08-07T18:42:51.897Z,45.39
2022-08-07T18:47:00.224Z,47.14
2022-08-07T18:50:46.127Z,46.57
2022-08-07T18:54:51.766Z,48.29
2022-08-07T18:59:03.057Z,47.22
2022-08-07T19:03:11.872Z,50.16
2022-08-07T19:07:02.189Z,50.73
2022-08-07T19:10:23.341Z,51.85
2022-08-07T19:14:20.358Z,52.34
2022-08-07T19:18:02.455Z,52.01
2022-08-07T19:22:04.301Z,53.45
2022-08-07T19:26:21.866Z,54.28
2022-08-07T19:31:05.967Z,53.74
2022-08-07T19:34:00.980Z,55.97
2022-08-07T19:37:47.297Z,56.76
2022-08-07T19:41:39.345Z,56.90
2022-08-07T19:46:08.008Z,55.71
2022-08-07T19:49:57.844Z,57.17
2022-08-07T19:54:31.421Z,58.78
2022-08-07T19:58:13.206Z,57.59
2022-08-07T20:01:59.096Z,59.05
2022-08-07T20:06:01.044Z,60.62
2022-08-07T20:10:33.890Z,63.48
2022-08-07T20:13:57.501Z,62.21
2022-08-07T20:18:01.282Z,63.07
2022-08-07T20:21:42.009Z,62.86
2022-08-07T20:25:12.802Z,65.62
2022-08-07T20:29:10.242Z,65.42
2022-08-07T20:32:40.422Z,67.22
2022-08-07T20:36:03.403Z,66.51
2022-08-07T20:40:02.103Z,67.31
2022-08-07T20:43:27.416Z,65.81
2022-08-07T20:47:04.332Z,64.95
2022-08-07T20:50:48.058Z,66.86
2022-08-07T20:54:38.435Z,67.51
2022-08-07T20:58:28.180Z,67.60
2022-08-07T21:02:08.292Z,68.03
2022-08-07T21:05:25.763Z,69.53
2022-08-07T21:09:52.934Z,73.06
2022-08-07T21:13:10.029Z,78.54
2022-08-07T21:16:56.274Z,81.73
2022-08-07T21:20:39.255Z,87.61
2022-08-07T21:24:55.415Z,89.77
2022-08-07T21:28:48.568Z,93.51
2022-08-07T21:32:49.548Z,92.56
2022-08-07T21:36:40.046Z,90.55
2022-08-07T21:40:21.810Z,87.81
2022-08-07T21:44:06.311Z,88.34
2022-08-07T21:48:03.756Z,90.03
2022-08-07T21:51:25.006Z,87.83
2022-08-07T21:55:01.103Z,84.72
2022-08-07T21:58:50.539Z,82.99
2022-08-07T22:02:27.821Z,81.97
2022-08-07T22:05:48.474Z,78.35
2022-08-07T22:09:16.597Z,77.05
2022-08-07T22:13:05.879Z,80.05
2022-08-07T22:16:42.302Z,82.74
2022-08-07T22:19:49.576Z,82.87
2022-08-07T22:23:07.499Z,82.55
2022-08-07T22:26:44.528Z,85.70
2022-08-07T22:30:19.451Z,86.35
2022-08-07T22:34:04.385Z,90.56
2022-08-07T22:37:12.407Z,89.36
2022-08-07T22:40:46.256Z,87.79
2022-08-07T22:44:21.828Z,90.20
2022-08-07T22:47:58.897Z,92.31
2022-08-07T22:51:53.831Z,94.04
2022-08-07T22:55:55.278Z,94.53
2022-08-07T22:59:32.591Z,95.32
2022-08-07T23:02:40.617Z,92.19
2022-08-07T23:06:29.049Z,96.44
2022-08-07T23:10:04.525Z,100.00
2022-08-07T23:13:49.317Z,100.00
2022-08-07T23:17:45.190Z,100.00
2022-08-07T23:21:37.657Z,100.00
2022-08-07T23:25:20.982Z,99.79
2022-08-07T23:29:16.658Z,100.00
2022-08-07T23:34:35.739Z,100.00
2022-08-07T23:41:15.559Z,100.00
2022-08-07T23:44:53.209Z,100.00
2022-08-07T23:48:29.762Z,100.00
2022-08-07T23:53:05.707Z,100.00
2022-08-07T23:55:59.685Z,100.00
